Flight Track Log - Related Links

Times and Time Zones

All times are in EDT time to prevent confusion due to time zone crossing. See the UAL289 flight status page for this flight to view local times or setup timezone preferences in your user account.


Time Position Orientation Groundspeed Altitude Reporting Facility
EDT Latitude Longitude Course Direction KTS MPH feet Rate Location/Type
Thu 02:36:19 PM 40.8167 -73.8500 304° West 176 203 1,900  Level New York TRACON
Thu 02:37:19 PM 40.8667 -73.8167 27° Northeast 235 270 5,000 3,100 Climbing New York TRACON
Thu 02:38:00 PM 40.9194 -74.2054 304° West  Level FlightAware Approximate
Thu 02:38:19 PM 40.9333 -73.8167 360° North 264 304 8,100  Level New York TRACON
Thu 02:39:00 PM 40.9755 -74.3177 304° West  Level FlightAware Approximate
Thu 02:39:19 PM 40.9833 -73.9000 308° West 272 313 11,100  Level New York TRACON
Thu 02:40:00 PM 41.0257 -74.4349 299° West  Level FlightAware Approximate
Thu 02:40:19 PM 41.0500 -73.9833 317° Northwest 326 375 13,200  Level New York TRACON
Thu 02:41:00 PM 41.0691 -74.5548 304° West  Level FlightAware Approximate
Thu 02:41:20 PM 41.0667 -74.1000 281° West 325 374 15,700  Level New York TRACON
Thu 02:43:03 PM 41.0942 -74.3006 280° West 337 388 16,000 110 Climbing New York Center
Thu 02:44:04 PM 41.1078 -74.4061 280° West 332 382 16,000  Level New York Center
Thu 02:45:05 PM 41.1203 -74.5389 277° West 332 382 16,000  Level New York Center
Thu 02:46:03 PM 41.1333 -74.6469 279° West 332 382 16,000 756 Level New York Center
Thu 02:47:04 PM 41.1689 -74.7703 291° West 332 382 17,500 1,736 Climbing New York Center
Thu 02:48:04 PM 41.2133 -74.8694 301° West 332 382 19,500 1,966 Climbing New York Center
Thu 02:49:03 PM 41.2614 -74.9856 299° West 352 405 21,400 1,866 Climbing New York Center
Thu 02:50:03 PM 41.3153 -75.1050 301° West 365 420 23,200 1,736 Climbing New York Center
Thu 02:51:04 PM 41.3669 -75.2325 298° West 379 436 24,900 1,650 Climbing New York Center
Thu 02:52:03 PM 41.4222 -75.3608 300° West 391 450 26,500 1,550 Climbing New York Center
Thu 02:53:04 PM 41.4775 -75.4947 299° West 402 463 28,000 1,537 Climbing New York Center
Thu 02:54:04 PM 41.5178 -75.6333 291° West 408 470 29,600 1,412 Climbing New York Center
Thu 02:55:03 PM 41.5578 -75.7719 291° West 408 470 30,800 1,261 Climbing New York Center
Thu 02:56:03 PM 41.5994 -75.9167 291° West 408 470 32,100 1,339 Climbing New York Center
Thu 02:57:04 PM 41.6392 -76.0558 291° West 408 470 33,500 1,438 Climbing New York Center
Thu 02:58:04 PM 41.6806 -76.2006 291° West 413 475 35,000 1,240 Climbing New York Center
Thu 02:59:05 PM 41.7178 -76.3397 290° West 413 475 36,000 296 Climbing New York Center
Thu 03:01:27 PM 41.8122 -76.6769 291° West 408 470 36,000  Level Cleveland Center
Thu 03:02:26 PM 41.8525 -76.8194 291° West 403 464 36,000  Level Cleveland Center
Thu 03:03:27 PM 41.8903 -76.9594 290° West 403 464 36,000  Level Cleveland Center
Thu 03:04:26 PM 41.9281 -77.1025 290° West 403 464 36,000  Level Cleveland Center
Thu 03:05:27 PM 41.9658 -77.2458 290° West 403 464 36,000  Level Cleveland Center
Thu 03:06:27 PM 42.0053 -77.3864 291° West 403 464 36,000  Level Cleveland Center
Thu 03:07:27 PM 42.0469 -77.5408 290° West 403 464 36,000  Level Cleveland Center
Thu 03:08:26 PM 42.0839 -77.6844 289° West 403 464 36,000  Level Cleveland Center
Thu 03:09:27 PM 42.1231 -77.8283 290° West 403 464 36,000 33 Level Cleveland Center
Thu 03:11:26 PM 42.1983 -78.1139 290° West 403 464 36,100  Climbing Cleveland Center
Thu 03:12:27 PM 42.2347 -78.2583 289° West 403 464 36,000 -50 Descending Cleveland Center
Thu 03:13:27 PM 42.2708 -78.4000 289° West 403 464 36,000  Level Cleveland Center
Thu 03:14:26 PM 42.3086 -78.5392 290° West 403 464 36,000  Level Cleveland Center
Thu 03:15:27 PM 42.3444 -78.6842 289° West 403 464 36,000  Level Cleveland Center
Thu 03:16:27 PM 42.3803 -78.8292 289° West 403 464 36,000  Level Cleveland Center
Thu 03:17:26 PM 42.4156 -78.9717 289° West 403 464 36,000  Level Cleveland Center
Thu 03:18:26 PM 42.4508 -79.1142 289° West 403 464 36,000  Level Cleveland Center
Thu 03:19:26 PM 42.4794 -79.2292 289° West 403 464 36,000  Level Cleveland Center
Thu 03:20:27 PM 42.4981 -79.4117 278° West 398 458 36,000  Level Cleveland Center
Thu 03:21:27 PM 42.5056 -79.5553 274° West 398 458 36,000  Level Cleveland Center
Thu 03:22:27 PM 42.5131 -79.7044 274° West 393 452 36,000  Level Cleveland Center
Thu 03:23:27 PM 42.5225 -79.8508 275° West 393 452 36,000  Level Cleveland Center
Thu 03:24:27 PM 42.5233 -79.9944 270° West 393 452 36,000  Level Cleveland Center
Thu 03:25:27 PM 42.5303 -80.1436 274° West 393 452 36,000 50 Level Cleveland Center
Thu 03:26:27 PM 42.5392 -80.2931 275° West 400 460 36,100  Climbing Cleveland Center
Thu 03:27:26 PM 42.5414 -80.4422 271° West 409 471 36,000 -50 Descending Cleveland Center
Thu 03:28:27 PM 42.5497 -80.5889 274° West 401 461 36,000  Level Cleveland Center
Thu 03:29:26 PM 42.5558 -80.7411 273° West 401 461 36,000  Level Cleveland Center
Thu 03:30:27 PM 42.5597 -80.8906 272° West 401 461 36,000  Level Cleveland Center
Thu 03:31:27 PM 42.5656 -81.0428 273° West 406 467 36,000 50 Level Cleveland Center
Thu 03:32:27 PM 42.5711 -81.1950 273° West 401 461 36,100  Climbing Cleveland Center
Thu 03:33:27 PM 42.5764 -81.3472 273° West 406 467 36,000 -50 Descending Cleveland Center
Thu 03:34:26 PM 42.5881 -81.4744 277° West 399 459 36,000  Level Cleveland Center
Thu 03:35:26 PM 42.6139 -81.6214 283° West 394 453 36,000  Level Cleveland Center
Thu 03:36:27 PM 42.6375 -81.7628 283° West 394 453 36,000  Level Cleveland Center
Thu 03:37:27 PM 42.6611 -81.9072 283° West 394 453 36,000  Level Cleveland Center
Thu 03:38:26 PM 42.6864 -82.0547 283° West 394 453 36,000  Level Cleveland Center
Thu 03:39:27 PM 42.7136 -82.1994 284° West 394 453 36,000  Level Cleveland Center
Thu 03:40:27 PM 42.7322 -82.3442 280° West 394 453 36,000  Level Cleveland Center
Thu 03:41:26 PM 42.7425 -82.4914 275° West 394 453 36,000  Level Cleveland Center
Thu 03:42:27 PM 42.7544 -82.6417 276° West 394 453 36,000  Level Cleveland Center
Thu 03:43:27 PM 42.7661 -82.7919 276° West 394 453 36,000  Level Cleveland Center
Thu 03:44:26 PM 42.7781 -82.9367 276° West 394 453 36,000  Level Cleveland Center
Thu 03:46:26 PM 42.7964 -83.2372 275° West 399 459 36,000  Level Cleveland Center
Thu 03:47:26 PM 42.8056 -83.3850 275° West 399 459 36,000  Level Cleveland Center
Thu 03:48:27 PM 42.8164 -83.5297 276° West 399 459 36,000 -500 Level Cleveland Center
Thu 03:49:26 PM 42.8286 -83.6975 276° West 406 467 35,000 -1,008 Descending Cleveland Center
Thu 03:50:26 PM 42.8372 -83.8450 275° West 406 467 34,000 -1,000 Descending Cleveland Center
Thu 03:51:26 PM 42.8456 -83.9900 275° West 401 461 33,000 -942 Descending Cleveland Center
Thu 03:52:27 PM 42.8553 -84.1464 275° West 401 461 32,100 -496 Descending Cleveland Center
Thu 03:53:27 PM 42.8650 -84.3000 275° West 407 468 32,000 -50 Descending Cleveland Center
Thu 03:54:27 PM 42.8753 -84.4367 276° West 407 468 32,000  Level Cleveland Center
Thu 03:55:00 PM 42.8808 -84.5253 275° West 413 475 32,000  Level Chicago Center
Thu 03:56:03 PM 42.8739 -84.6794 267° West 410 472 32,000  Level Chicago Center
Thu 03:57:05 PM 42.8572 -84.8317 262° West 407 468 32,000  Level Chicago Center
Thu 03:58:07 PM 42.8422 -84.9861 263° West 410 472 32,000  Level Chicago Center
Thu 03:59:09 PM 42.8222 -85.1683 262° West 407 468 32,000  Level Chicago Center
Thu 04:00:11 PM 42.8058 -85.3222 262° West 411 473 32,000  Level Chicago Center
Thu 04:01:13 PM 42.7881 -85.4753 261° West 409 471 32,000 -145 Level Chicago Center
Thu 04:02:15 PM 42.7636 -85.6275 258° West 410 472 31,700 -1,306 Descending Chicago Center
Thu 04:03:17 PM 42.7361 -85.7786 256° West 409 471 29,300 -2,855 Descending Chicago Center
Thu 04:04:19 PM 42.7086 -85.9286 256° West 408 470 25,800 -4,080 Descending Chicago Center
Thu 04:05:22 PM 42.6819 -86.0758 256° West 400 460 20,800 -2,784 Descending Chicago Center
Thu 04:06:24 PM 42.6508 -86.2408 256° West 377 434 20,000 -387 Descending Chicago Center
Thu 04:07:26 PM 42.6267 -86.3689 256° West 354 407 20,000 -242 Level Chicago Center
Thu 04:08:28 PM 42.6019 -86.4997 256° West 356 410 19,500 -1,065 Descending Chicago Center
Thu 04:09:30 PM 42.5778 -86.6283 256° West 354 407 17,800 -1,210 Descending Chicago Center
Thu 04:10:32 PM 42.5539 -86.7556 256° West 348 400 17,000 -1,113 Descending Chicago Center
Thu 04:11:34 PM 42.5192 -86.8764 249° West 346 398 15,500 -1,742 Descending Chicago Center
Thu 04:12:36 PM 42.4811 -87.0192 250° West 339 390 13,400 -2,419 Descending Chicago Center
Thu 04:13:38 PM 42.4486 -87.1314 249° West 326 375 10,500 -1,887 Descending Chicago Center
Thu 04:14:40 PM 42.4222 -87.2306 250° West 284 327 9,500 -1,210 Descending Chicago Center
Thu 04:15:42 PM 42.3958 -87.3233 249° West 265 305 8,000 -1,548 Descending Chicago Center
Thu 04:16:44 PM 42.3306 -87.3933 218° Southwest 270 311 6,300 -1,016 Descending Chicago Center
Thu 04:17:46 PM 42.2672 -87.4519 214° Southwest 268 308 5,900 -576 Descending Chicago Center
Thu 04:18:49 PM 42.2083 -87.5081 215° Southwest 262 302 5,100 -576 Descending Chicago Center
Thu 04:19:51 PM 42.1503 -87.5633 215° Southwest 256 295 4,700 -447 Descending Chicago Center
Thu 04:20:23 PM 42.1167 -87.6000 219° Southwest 250 288 4,400 -391 Descending Chicago TRACON
Thu 04:21:23 PM 42.0667 -87.6500 217° Southwest 211 243 4,100 -250 Descending Chicago TRACON
Thu 04:22:23 PM 42.0333 -87.7167 236° Southwest 180 207 3,900 -200 Descending Chicago TRACON

Login

Don't have an account? Register now (free) for customized features, flight alerts, and more!